Terminal Aerodrome Forecast
Issued by NWS

Home | Current Version | Previous Version | Text Only | Print | Product List | Glossary On
Versions: 1 2 3 4 5 6 7 8 9 10 11 12 13 14 15 16 17 18 19 20 21 22 23 24 25 26 27 28 29 30 31 32 33 34 35 36 37 38 39 40 41
000
FTUS45 KGJT 211814 AAA
TAFEGE
TAF AMD
KEGE 211814Z 2118/2218 VRB03KT P6SM BKN050 OVC070
     FM212000 VRB03KT 4SM -SHSN OVC035
     FM220100 26005KT 3SM -SHSN OVC035
     FM220500 VRB03KT P6SM VCSH OVC020
     FM221000 VRB03KT P6SM BKN035=

USA.gov is the U.S. government's official web portal to all federal, state and local government web resources and services.